createdAt,value
2022-08-23T00:01:50.575Z,7.22
2022-08-23T00:04:23.451Z,6.93
2022-08-23T00:07:01.164Z,6.50
2022-08-23T00:09:29.079Z,5.20
2022-08-23T00:12:03.533Z,4.63
2022-08-23T00:14:32.071Z,6.57
2022-08-23T00:16:59.343Z,3.75
2022-08-23T00:19:26.608Z,4.00
2022-08-23T00:21:55.203Z,6.47
2022-08-23T00:24:23.883Z,7.07
2022-08-23T00:26:59.883Z,9.55
2022-08-23T00:29:31.651Z,4.60
2022-08-23T00:31:59.199Z,7.18
2022-08-23T00:34:25.910Z,5.15
2022-08-23T00:36:52.961Z,3.83
2022-08-23T00:39:19.486Z,6.90
2022-08-23T00:41:47.771Z,6.70
2022-08-23T00:44:39.525Z,5.60
2022-08-23T00:47:26.198Z,7.32
2022-08-23T00:50:03.987Z,9.77
2022-08-23T00:53:17.628Z,5.35
2022-08-23T00:55:46.626Z,5.93
2022-08-23T00:58:16.139Z,6.03
2022-08-23T01:00:42.595Z,7.90
2022-08-23T01:03:11.326Z,3.78
2022-08-23T01:06:01.578Z,8.00
2022-08-23T01:08:31.331Z,7.05
2022-08-23T01:11:08.829Z,6.13
2022-08-23T01:13:51.005Z,6.40
2022-08-23T01:16:25.788Z,5.65
2022-08-23T01:18:54.723Z,7.82
2022-08-23T01:21:36.583Z,9.20
2022-08-23T01:24:08.143Z,3.95
2022-08-23T01:26:35.256Z,5.80
2022-08-23T01:29:05.767Z,4.75
2022-08-23T01:31:33.311Z,6.38
2022-08-23T01:34:06.766Z,4.93
2022-08-23T01:36:35.719Z,5.25
2022-08-23T01:39:04.507Z,5.07
2022-08-23T01:41:31.980Z,4.68
2022-08-23T01:43:58.752Z,7.55
2022-08-23T01:46:27.428Z,7.68
2022-08-23T01:48:55.540Z,5.30
2022-08-23T01:51:23.885Z,5.13
2022-08-23T01:53:50.944Z,8.73
2022-08-23T01:56:27.571Z,4.85
2022-08-23T01:59:08.608Z,5.35
2022-08-23T02:01:42.739Z,9.45
2022-08-23T02:04:09.201Z,6.57
2022-08-23T02:06:35.898Z,6.55
2022-08-23T02:09:05.792Z,5.18
2022-08-23T02:11:45.024Z,5.72
2022-08-23T02:14:18.516Z,4.10
2022-08-23T02:17:04.469Z,4.47
2022-08-23T02:22:03.314Z,4.28
2022-08-23T02:24:31.182Z,7.63
2022-08-23T02:27:02.018Z,9.25
2022-08-23T02:29:29.733Z,4.28
2022-08-23T02:31:58.354Z,9.68
2022-08-23T02:34:36.732Z,6.50
2022-08-23T02:37:03.527Z,11.25
2022-08-23T02:39:30.485Z,5.60
2022-08-23T02:41:57.550Z,5.35
2022-08-23T02:44:24.683Z,7.50
2022-08-23T02:46:51.247Z,16.88
2022-08-23T02:49:18.512Z,8.27
2022-08-23T02:51:46.201Z,7.18
2022-08-23T02:54:13.288Z,6.78
2022-08-23T02:56:40.358Z,6.38
2022-08-23T02:59:08.214Z,8.13
2022-08-23T03:01:37.704Z,3.97
2022-08-23T03:04:24.901Z,5.55
2022-08-23T03:06:51.572Z,4.13
2022-08-23T03:09:18.605Z,8.43
2022-08-23T03:11:47.382Z,13.30
2022-08-23T03:14:14.200Z,4.40
2022-08-23T03:16:41.223Z,7.10
2022-08-23T03:19:08.607Z,8.35
2022-08-23T03:21:35.852Z,6.32
2022-08-23T03:24:06.911Z,6.05
2022-08-23T03:26:36.751Z,10.25
2022-08-23T03:29:03.762Z,6.90
2022-08-23T03:31:37.039Z,6.43
2022-08-23T03:34:09.369Z,3.72
2022-08-23T03:36:35.775Z,5.38
2022-08-23T03:39:04.703Z,5.00
2022-08-23T03:41:31.131Z,5.65
2022-08-23T03:43:57.726Z,6.70
2022-08-23T03:46:29.026Z,7.40
2022-08-23T03:49:02.243Z,4.30
2022-08-23T03:51:36.477Z,7.85
2022-08-23T03:54:03.549Z,6.45
2022-08-23T03:56:33.106Z,9.20
2022-08-23T03:59:04.300Z,6.65
2022-08-23T04:01:30.797Z,5.73
2022-08-23T04:04:01.265Z,5.35
2022-08-23T04:08:56.439Z,5.30
2022-08-23T04:11:23.496Z,5.63
2022-08-23T04:13:56.723Z,8.10
2022-08-23T04:16:23.273Z,5.18
2022-08-23T04:18:49.807Z,4.80
2022-08-23T04:21:22.384Z,4.05
2022-08-23T04:23:49.470Z,8.03
2022-08-23T04:26:15.985Z,9.02
2022-08-23T04:28:43.731Z,9.02
2022-08-23T04:31:10.469Z,7.32
2022-08-23T04:33:40.453Z,13.60
2022-08-23T04:36:08.786Z,8.85
2022-08-23T04:38:35.244Z,10.68
2022-08-23T04:41:23.749Z,6.45
2022-08-23T04:43:56.737Z,13.50
2022-08-23T04:46:24.407Z,6.90
2022-08-23T04:48:54.000Z,5.68
2022-08-23T04:51:22.125Z,13.80
2022-08-23T04:53:48.940Z,5.18
2022-08-23T04:56:34.708Z,7.32
2022-08-23T04:59:01.962Z,9.10
2022-08-23T05:01:28.879Z,8.27
2022-08-23T05:03:56.048Z,13.00
2022-08-23T05:06:25.119Z,9.38
2022-08-23T05:08:53.084Z,10.05
2022-08-23T05:11:20.470Z,6.80
2022-08-23T05:13:48.436Z,20.42
2022-08-23T05:16:15.496Z,9.95
2022-08-23T05:18:49.633Z,14.20
2022-08-23T05:21:19.527Z,19.17
2022-08-23T05:23:50.756Z,26.73
2022-08-23T05:26:21.304Z,31.60
2022-08-23T05:28:49.852Z,26.85
2022-08-23T05:31:25.940Z,36.05
2022-08-23T05:33:54.971Z,40.92
2022-08-23T05:36:55.818Z,56.78
2022-08-23T05:39:37.099Z,56.75
2022-08-23T05:42:10.660Z,58.60
2022-08-23T05:44:37.779Z,51.58
2022-08-23T05:47:10.685Z,67.90
2022-08-23T05:49:46.586Z,77.40
2022-08-23T05:52:14.158Z,94.95
2022-08-23T05:54:42.710Z,103.80
2022-08-23T05:57:41.478Z,78.88
2022-08-23T06:00:15.242Z,79.13
2022-08-23T06:02:51.166Z,58.53
2022-08-23T06:05:19.595Z,55.85
2022-08-23T06:07:47.637Z,63.75
2022-08-23T06:10:20.182Z,50.53
2022-08-23T06:12:50.772Z,50.03
2022-08-23T06:15:17.452Z,37.72
2022-08-23T06:17:44.044Z,49.47
2022-08-23T06:20:11.011Z,57.25
2022-08-23T06:22:55.260Z,42.47
2022-08-23T06:25:22.251Z,39.88
2022-08-23T06:28:10.763Z,40.25
2022-08-23T06:30:39.994Z,39.40
2022-08-23T06:33:16.196Z,36.67
2022-08-23T06:35:46.539Z,32.95
2022-08-23T06:38:29.011Z,38.00
2022-08-23T06:41:14.015Z,35.30
2022-08-23T06:44:20.021Z,25.67
2022-08-23T06:47:02.060Z,33.05
2022-08-23T06:49:28.891Z,29.00
2022-08-23T06:51:57.830Z,39.55
2022-08-23T06:54:44.242Z,30.77
2022-08-23T06:57:37.766Z,24.75
2022-08-23T07:00:22.791Z,20.15
2022-08-23T07:03:24.732Z,23.25
2022-08-23T07:06:09.930Z,30.40
2022-08-23T07:08:37.637Z,17.00
2022-08-23T07:11:04.376Z,19.65
2022-08-23T07:13:31.042Z,21.40
2022-08-23T07:15:59.327Z,22.13
2022-08-23T07:18:26.666Z,18.33
2022-08-23T07:20:58.782Z,18.90
2022-08-23T07:23:27.049Z,16.17
2022-08-23T07:25:54.396Z,15.23
2022-08-23T07:28:25.127Z,11.45
2022-08-23T07:30:51.825Z,18.67
2022-08-23T07:33:18.383Z,14.25
2022-08-23T07:36:16.430Z,8.85
2022-08-23T07:38:45.439Z,9.20
2022-08-23T07:41:12.998Z,6.78
2022-08-23T07:43:39.662Z,9.27
2022-08-23T07:46:08.846Z,14.35
2022-08-23T07:48:53.441Z,5.60
2022-08-23T07:51:25.093Z,7.43
2022-08-23T07:53:52.048Z,8.63
2022-08-23T07:56:21.339Z,8.38
2022-08-23T07:58:57.969Z,9.43
2022-08-23T08:01:53.679Z,5.85
2022-08-23T08:04:22.180Z,7.10
2022-08-23T08:07:10.330Z,12.55
2022-08-23T08:09:42.231Z,9.93
2022-08-23T08:12:08.859Z,5.47
2022-08-23T08:14:37.326Z,8.18
2022-08-23T08:17:04.402Z,10.77
2022-08-23T08:19:57.043Z,7.65
2022-08-23T08:22:46.739Z,8.50
2022-08-23T08:25:14.972Z,10.48
2022-08-23T08:27:42.755Z,6.13
2022-08-23T08:30:11.833Z,17.38
2022-08-23T08:32:46.709Z,6.60
2022-08-23T08:35:13.812Z,9.80
2022-08-23T08:37:40.542Z,12.07
2022-08-23T08:40:07.991Z,7.00
2022-08-23T08:43:06.272Z,11.30
2022-08-23T08:46:02.988Z,11.77
2022-08-23T08:48:39.369Z,14.00
2022-08-23T08:51:19.671Z,11.38
2022-08-23T08:53:49.424Z,11.90
2022-08-23T08:56:32.944Z,8.38
2022-08-23T08:59:24.015Z,4.75
2022-08-23T09:01:51.448Z,7.63
2022-08-23T09:04:25.691Z,6.25
2022-08-23T09:07:11.119Z,6.80
2022-08-23T09:10:25.190Z,5.30
2022-08-23T09:13:32.956Z,6.28
2022-08-23T09:16:41.249Z,10.18
2022-08-23T09:19:08.488Z,10.60
2022-08-23T09:21:47.223Z,7.53
2022-08-23T09:24:14.430Z,9.63
2022-08-23T09:26:54.270Z,9.88
2022-08-23T09:29:31.272Z,8.25
2022-08-23T09:32:03.578Z,9.13
2022-08-23T09:34:36.527Z,10.02
2022-08-23T09:37:17.602Z,8.48
2022-08-23T09:39:49.593Z,11.27
2022-08-23T09:42:32.733Z,5.68
2022-08-23T09:44:59.694Z,5.80
2022-08-23T09:47:38.463Z,8.45
2022-08-23T09:50:25.186Z,5.03
2022-08-23T09:52:59.020Z,6.03
2022-08-23T09:55:31.667Z,13.85
2022-08-23T09:58:00.531Z,6.38
2022-08-23T10:00:34.149Z,6.03
2022-08-23T10:03:27.662Z,5.00
2022-08-23T10:06:01.645Z,4.43
2022-08-23T10:08:40.916Z,10.00
2022-08-23T10:11:23.775Z,6.72
2022-08-23T10:13:52.235Z,13.18
2022-08-23T10:16:39.703Z,4.85
2022-08-23T10:19:56.127Z,6.40
2022-08-23T10:22:26.747Z,8.43
2022-08-23T10:25:30.337Z,8.35
2022-08-23T10:28:47.415Z,8.20
2022-08-23T10:31:41.852Z,9.52
2022-08-23T10:34:47.112Z,6.72
2022-08-23T10:37:36.426Z,8.90
2022-08-23T10:40:28.885Z,7.97
2022-08-23T10:43:07.683Z,8.30
2022-08-23T10:45:40.038Z,8.13
2022-08-23T10:48:28.502Z,5.68
2022-08-23T10:50:59.559Z,7.85
2022-08-23T10:53:37.494Z,4.68
2022-08-23T10:56:06.768Z,8.70
2022-08-23T10:58:56.013Z,6.25
2022-08-23T11:01:28.916Z,9.98
2022-08-23T11:04:04.155Z,9.48
2022-08-23T11:06:45.809Z,6.13
2022-08-23T11:09:19.661Z,9.80
2022-08-23T11:11:49.864Z,5.50
2022-08-23T11:14:36.835Z,6.95
2022-08-23T11:17:11.662Z,7.95
2022-08-23T11:19:52.395Z,6.47
2022-08-23T11:22:21.621Z,5.43
2022-08-23T11:24:54.746Z,6.03
2022-08-23T11:27:33.293Z,5.55
2022-08-23T11:30:34.828Z,4.30
2022-08-23T11:33:26.250Z,4.00
2022-08-23T11:36:16.613Z,6.72
2022-08-23T11:38:43.636Z,4.57
2022-08-23T11:41:18.874Z,4.50
2022-08-23T11:43:56.217Z,6.25
2022-08-23T11:46:22.745Z,3.33
2022-08-23T11:49:27.035Z,5.93
2022-08-23T11:52:02.233Z,6.78
2022-08-23T11:55:06.972Z,5.95
2022-08-23T11:57:55.366Z,9.65
2022-08-23T12:00:28.902Z,6.65
2022-08-23T12:03:04.545Z,5.10
2022-08-23T12:05:34.304Z,4.10
2022-08-23T12:08:04.232Z,8.48
2022-08-23T12:10:37.985Z,7.50
2022-08-23T12:13:19.637Z,6.35
2022-08-23T12:16:19.721Z,3.85
2022-08-23T12:18:49.286Z,4.90
2022-08-23T12:21:23.968Z,4.70
2022-08-23T12:23:54.143Z,4.65
2022-08-23T12:26:26.883Z,5.10
2022-08-23T12:29:39.899Z,7.53
2022-08-23T12:32:09.350Z,7.68
2022-08-23T12:35:03.396Z,5.47
2022-08-23T12:38:08.501Z,6.18
2022-08-23T12:40:42.801Z,8.05
2022-08-23T12:43:19.771Z,5.55
2022-08-23T12:45:57.687Z,8.13
2022-08-23T12:48:27.631Z,6.35
2022-08-23T12:51:02.090Z,4.20
2022-08-23T12:53:44.004Z,6.55
2022-08-23T12:56:17.233Z,7.05
2022-08-23T12:58:49.272Z,7.03
2022-08-23T13:01:23.145Z,5.47
2022-08-23T13:03:59.095Z,6.55
2022-08-23T13:06:31.250Z,6.43
2022-08-23T13:09:35.422Z,3.38
2022-08-23T13:12:03.500Z,7.07
2022-08-23T13:15:04.996Z,4.28
2022-08-23T13:17:38.610Z,4.95
2022-08-23T13:20:22.604Z,4.13
2022-08-23T13:23:02.477Z,4.35
2022-08-23T13:25:38.732Z,5.38
2022-08-23T13:28:21.372Z,4.68
2022-08-23T13:31:01.032Z,6.28
2022-08-23T13:33:27.470Z,6.18
2022-08-23T13:36:14.611Z,3.22
2022-08-23T13:38:43.253Z,3.92
2022-08-23T13:41:26.285Z,10.52
2022-08-23T13:43:53.185Z,6.30
2022-08-23T13:46:28.481Z,5.93
2022-08-23T13:49:00.276Z,6.45
2022-08-23T13:51:36.968Z,8.23
2022-08-23T13:54:15.535Z,7.05
2022-08-23T13:56:47.513Z,7.30
2022-08-23T13:59:22.812Z,3.55
2022-08-23T14:01:54.073Z,3.80
2022-08-23T14:04:20.634Z,5.70
2022-08-23T14:06:48.924Z,6.43
2022-08-23T14:09:16.065Z,5.13
2022-08-23T14:11:43.002Z,5.45
2022-08-23T14:14:11.926Z,4.40
2022-08-23T14:16:40.063Z,6.63
2022-08-23T14:19:55.352Z,5.25
2022-08-23T14:24:26.904Z,5.07
2022-08-23T14:26:54.718Z,3.58
2022-08-23T14:29:22.517Z,4.63
2022-08-23T14:31:50.846Z,2.90
2022-08-23T14:34:17.451Z,4.28
2022-08-23T14:37:21.704Z,4.15
2022-08-23T14:39:30.529Z,4.38
2022-08-23T14:41:58.075Z,6.20
2022-08-23T14:44:25.667Z,4.22
2022-08-23T14:46:54.424Z,3.33
2022-08-23T14:49:21.791Z,3.50
2022-08-23T14:51:50.242Z,9.75
2022-08-23T14:54:23.734Z,4.82
2022-08-23T14:56:50.783Z,3.67
2022-08-23T14:59:17.358Z,3.83
2022-08-23T15:01:44.860Z,3.28
2022-08-23T15:04:16.132Z,5.75
2022-08-23T15:07:00.452Z,3.45
2022-08-23T15:09:29.054Z,2.78
2022-08-23T15:14:41.814Z,2.60
2022-08-23T15:17:08.323Z,5.05
2022-08-23T15:19:35.149Z,3.25
2022-08-23T15:22:18.579Z,5.50
2022-08-23T15:24:48.911Z,4.97
2022-08-23T15:27:15.410Z,3.65
2022-08-23T15:29:41.802Z,3.47
2022-08-23T15:32:10.160Z,6.15
2022-08-23T15:34:40.153Z,3.88
2022-08-23T15:37:13.007Z,3.70
2022-08-23T15:39:39.479Z,4.25
2022-08-23T15:42:06.713Z,3.88
2022-08-23T15:44:33.134Z,6.32
2022-08-23T15:46:59.631Z,3.65
2022-08-23T15:49:27.899Z,4.78
2022-08-23T15:51:55.113Z,5.13
2022-08-23T15:54:21.493Z,2.63
2022-08-23T15:56:49.844Z,4.03
2022-08-23T15:59:19.852Z,6.47
2022-08-23T16:01:46.423Z,6.93
2022-08-23T16:04:13.124Z,2.30
2022-08-23T16:06:41.418Z,4.47
2022-08-23T16:09:16.398Z,2.97
2022-08-23T16:11:43.411Z,4.03
2022-08-23T16:14:10.324Z,6.35
2022-08-23T16:16:38.205Z,3.85
2022-08-23T16:19:05.768Z,4.95
2022-08-23T16:21:32.456Z,2.88
2022-08-23T16:23:59.642Z,4.65
2022-08-23T16:26:35.030Z,3.97
2022-08-23T16:29:04.004Z,6.43
2022-08-23T16:31:38.982Z,7.32
2022-08-23T16:34:11.709Z,5.68
2022-08-23T16:36:43.719Z,5.63
2022-08-23T16:39:11.574Z,6.65
2022-08-23T16:41:38.417Z,3.58
2022-08-23T16:44:05.769Z,4.72
2022-08-23T16:46:32.903Z,5.90
2022-08-23T16:48:59.356Z,4.50
2022-08-23T16:51:25.756Z,6.47
2022-08-23T16:53:55.653Z,4.55
2022-08-23T16:56:30.735Z,4.82
2022-08-23T16:58:57.189Z,6.18
2022-08-23T17:01:23.927Z,6.22
2022-08-23T17:03:50.539Z,5.40
2022-08-23T17:06:17.129Z,4.70
2022-08-23T17:08:43.597Z,4.85
2022-08-23T17:11:14.227Z,5.93
2022-08-23T17:16:07.670Z,7.35
2022-08-23T17:18:34.100Z,8.23
2022-08-23T17:21:00.526Z,6.05
2022-08-23T17:23:26.882Z,6.78
2022-08-23T17:25:53.272Z,5.57
2022-08-23T17:28:19.749Z,6.10
2022-08-23T17:30:46.175Z,6.40
2022-08-23T17:33:12.665Z,4.95
2022-08-23T17:35:39.495Z,6.65
2022-08-23T17:38:06.475Z,12.80
2022-08-23T17:40:36.565Z,8.90
2022-08-23T17:43:04.370Z,12.88
2022-08-23T17:45:39.504Z,7.38
2022-08-23T17:48:06.343Z,6.25
2022-08-23T17:50:32.832Z,6.93
2022-08-23T17:52:59.311Z,5.85
2022-08-23T17:55:25.823Z,5.05
2022-08-23T17:58:02.217Z,7.43
2022-08-23T18:00:35.511Z,11.88
2022-08-23T18:03:03.042Z,9.63
2022-08-23T18:05:33.164Z,6.60
2022-08-23T18:08:00.294Z,4.97
2022-08-23T18:10:27.334Z,6.03
2022-08-23T18:12:53.723Z,11.77
2022-08-23T18:15:20.493Z,7.53
2022-08-23T18:17:47.140Z,14.15
2022-08-23T18:20:13.847Z,9.77
2022-08-23T18:22:40.487Z,5.82
2022-08-23T18:25:08.820Z,11.60
2022-08-23T18:27:54.293Z,6.85
2022-08-23T18:30:21.124Z,4.97
2022-08-23T18:32:47.534Z,9.82
2022-08-23T18:35:14.019Z,8.65
2022-08-23T18:37:41.688Z,6.57
2022-08-23T18:40:10.041Z,7.85
2022-08-23T18:42:37.550Z,8.70
2022-08-23T18:45:05.207Z,6.03
2022-08-23T18:47:31.708Z,9.75
2022-08-23T18:49:58.126Z,25.48
2022-08-23T18:52:24.611Z,5.13
2022-08-23T18:54:50.987Z,4.97
2022-08-23T18:57:17.680Z,7.68
2022-08-23T18:59:44.382Z,9.80
2022-08-23T19:02:10.901Z,10.07
2022-08-23T19:04:37.514Z,8.18
2022-08-23T19:07:04.832Z,6.03
2022-08-23T19:09:31.244Z,6.07
2022-08-23T19:12:00.142Z,9.27
2022-08-23T19:14:28.227Z,6.60
2022-08-23T19:16:55.154Z,4.90
2022-08-23T19:19:22.918Z,9.57
2022-08-23T19:21:50.191Z,7.40
2022-08-23T19:24:17.035Z,5.43
2022-08-23T19:26:47.290Z,6.50
2022-08-23T19:29:14.761Z,6.15
2022-08-23T19:31:47.714Z,13.02
2022-08-23T19:34:16.655Z,7.75
2022-08-23T19:36:46.899Z,7.97
2022-08-23T19:39:16.319Z,4.22
2022-08-23T19:41:42.836Z,13.55
2022-08-23T19:44:09.954Z,13.05
2022-08-23T19:46:41.155Z,11.18
2022-08-23T19:49:10.461Z,9.32
2022-08-23T19:51:38.020Z,10.90
2022-08-23T19:54:10.983Z,11.55
2022-08-23T19:56:45.836Z,12.93
2022-08-23T19:59:16.156Z,10.63
2022-08-23T20:01:42.754Z,9.52
2022-08-23T20:04:09.244Z,6.45
2022-08-23T20:06:35.990Z,8.05
2022-08-23T20:09:02.558Z,8.13
2022-08-23T20:11:29.527Z,6.50
2022-08-23T20:13:56.560Z,7.93
2022-08-23T20:16:26.598Z,4.63
2022-08-23T20:18:54.235Z,7.80
2022-08-23T20:21:23.906Z,7.85
2022-08-23T20:24:01.447Z,9.30
2022-08-23T20:26:30.247Z,9.25
2022-08-23T20:28:59.753Z,7.70
2022-08-23T20:31:29.702Z,9.32
2022-08-23T20:33:56.771Z,7.30
2022-08-23T20:36:24.351Z,7.45
2022-08-23T20:38:50.841Z,9.70
2022-08-23T20:41:17.467Z,6.38
2022-08-23T20:43:47.622Z,7.05
2022-08-23T20:46:14.089Z,10.15
2022-08-23T20:48:40.488Z,7.10
2022-08-23T20:51:07.369Z,6.57
2022-08-23T20:53:34.986Z,5.55
2022-08-23T20:56:01.886Z,11.05
2022-08-23T20:58:28.487Z,6.15
2022-08-23T21:00:55.006Z,7.93
2022-08-23T21:03:21.646Z,5.75
2022-08-23T21:05:48.184Z,7.75
2022-08-23T21:08:16.136Z,8.75
2022-08-23T21:10:44.829Z,5.53
2022-08-23T21:13:11.459Z,11.38
2022-08-23T21:15:37.969Z,8.27
2022-08-23T21:18:04.810Z,5.85
2022-08-23T21:20:31.201Z,6.97
2022-08-23T21:22:57.649Z,7.78
2022-08-23T21:25:24.435Z,8.82
2022-08-23T21:27:50.930Z,6.75
2022-08-23T21:30:17.521Z,7.68
2022-08-23T21:32:43.958Z,6.07
2022-08-23T21:35:11.213Z,8.90
2022-08-23T21:37:38.090Z,6.55
2022-08-23T21:40:05.238Z,6.32
2022-08-23T21:42:31.738Z,5.40
2022-08-23T21:44:58.238Z,8.02
2022-08-23T21:47:24.668Z,7.70
2022-08-23T21:49:51.094Z,7.07
2022-08-23T21:52:17.494Z,8.05
2022-08-23T21:54:43.943Z,4.32
2022-08-23T21:57:10.911Z,6.10
2022-08-23T21:59:37.346Z,7.22
2022-08-23T22:02:04.133Z,7.63
2022-08-23T22:04:30.598Z,6.68
2022-08-23T22:06:57.235Z,18.20
2022-08-23T22:09:31.433Z,7.35
2022-08-23T22:14:28.732Z,4.82
2022-08-23T22:16:58.878Z,11.63
2022-08-23T22:19:25.564Z,7.05
2022-08-23T22:21:53.023Z,5.78
2022-08-23T22:24:25.601Z,10.52
2022-08-23T22:26:54.507Z,6.65
2022-08-23T22:29:21.217Z,5.35
2022-08-23T22:31:48.212Z,6.43
2022-08-23T22:34:14.937Z,10.55
2022-08-23T22:36:41.927Z,10.70
2022-08-23T22:39:08.480Z,4.97
2022-08-23T22:41:35.150Z,5.05
2022-08-23T22:44:02.656Z,8.00
2022-08-23T22:46:31.568Z,6.13
2022-08-23T22:48:58.378Z,7.70
2022-08-23T22:51:31.216Z,4.82
2022-08-23T22:54:00.718Z,5.43
2022-08-23T22:56:33.348Z,7.47
2022-08-23T22:59:00.024Z,6.07
2022-08-23T23:01:32.906Z,7.22
2022-08-23T23:04:02.001Z,7.28
2022-08-23T23:06:29.044Z,4.63
2022-08-23T23:08:56.171Z,6.50
2022-08-23T23:11:24.321Z,9.10
2022-08-23T23:13:50.835Z,12.85
2022-08-23T23:16:22.281Z,8.23
2022-08-23T23:19:07.940Z,9.93
2022-08-23T23:21:43.976Z,9.73
2022-08-23T23:24:12.926Z,5.93
2022-08-23T23:26:39.418Z,7.53
2022-08-23T23:29:06.164Z,8.23
2022-08-23T23:31:32.563Z,10.55
2022-08-23T23:33:59.047Z,7.03
2022-08-23T23:36:25.766Z,6.18
2022-08-23T23:38:52.371Z,8.18
2022-08-23T23:41:20.379Z,6.18
2022-08-23T23:43:47.748Z,6.90
2022-08-23T23:46:16.606Z,6.90
2022-08-23T23:48:46.475Z,10.52
2022-08-23T23:51:19.708Z,9.90
2022-08-23T23:53:46.609Z,8.10
2022-08-23T23:56:15.557Z,7.88
2022-08-23T23:58:42.067Z,9.15
